createdAt,value
2019-04-06T00:00:54.344Z,14.33
2019-04-06T00:03:24.718Z,11.90
2019-04-06T00:05:55.146Z,14.50
2019-04-06T00:08:25.462Z,13.90
2019-04-06T00:10:55.846Z,14.67
2019-04-06T00:13:26.241Z,14.03
2019-04-06T00:15:56.598Z,12.17
2019-04-06T00:18:26.979Z,12.00
2019-04-06T00:20:57.320Z,13.40
2019-04-06T00:23:28.797Z,12.90
2019-04-06T00:25:59.196Z,13.50
2019-04-06T00:28:29.714Z,13.07
2019-04-06T00:31:09.321Z,15.47
2019-04-06T00:33:39.747Z,13.73
2019-04-06T00:36:10.191Z,14.50
2019-04-06T00:38:40.517Z,14.33
2019-04-06T00:41:12.234Z,13.27
2019-04-06T00:43:42.876Z,14.17
2019-04-06T00:46:13.259Z,14.23
2019-04-06T00:48:43.610Z,14.10
2019-04-06T00:51:14.035Z,14.20
2019-04-06T00:53:44.373Z,11.50
2019-04-06T00:56:15.025Z,12.57
2019-04-06T00:58:45.358Z,13.33
2019-04-06T01:01:15.791Z,13.10
2019-04-06T01:03:46.174Z,13.33
2019-04-06T01:06:16.567Z,12.10
2019-04-06T01:08:46.958Z,12.70
2019-04-06T01:11:17.406Z,13.63
2019-04-06T01:13:47.718Z,14.00
2019-04-06T01:16:18.090Z,14.00
2019-04-06T01:18:48.498Z,12.20
2019-04-06T01:21:18.885Z,11.20
2019-04-06T01:23:49.339Z,11.70
2019-04-06T01:26:19.772Z,14.47
2019-04-06T01:28:50.467Z,13.33
2019-04-06T01:31:20.898Z,12.20
2019-04-06T01:33:51.354Z,14.60
2019-04-06T01:36:21.707Z,14.63
2019-04-06T01:38:52.235Z,14.00
2019-04-06T01:41:22.624Z,15.17
2019-04-06T01:43:53.236Z,14.40
2019-04-06T01:46:23.629Z,13.40
2019-04-06T01:48:54.001Z,13.20
2019-04-06T01:51:24.571Z,15.77
2019-04-06T01:53:55.140Z,15.13
2019-04-06T01:56:25.918Z,15.23
2019-04-06T01:58:56.251Z,13.57
2019-04-06T02:01:45.601Z,11.27
2019-04-06T02:04:16.038Z,15.53
2019-04-06T02:06:46.505Z,13.47
2019-04-06T02:09:16.851Z,13.37
2019-04-06T02:11:47.432Z,10.77
2019-04-06T02:14:17.831Z,14.37
2019-04-06T02:16:48.239Z,11.50
2019-04-06T02:19:18.852Z,11.87
2019-04-06T02:21:49.241Z,14.40
2019-04-06T02:24:19.647Z,15.73
2019-04-06T02:26:50.035Z,11.40
2019-04-06T02:29:20.361Z,11.80
2019-04-06T02:32:05.459Z,10.97
2019-04-06T02:34:51.632Z,13.07
2019-04-06T02:37:33.322Z,13.43
2019-04-06T02:40:28.972Z,13.07
2019-04-06T02:43:15.691Z,14.63
2019-04-06T02:45:46.061Z,12.97
2019-04-06T02:48:16.512Z,11.23
2019-04-06T02:50:46.901Z,12.37
2019-04-06T02:53:17.272Z,8.27
2019-04-06T02:55:47.701Z,13.80
2019-04-06T02:58:18.251Z,14.60
2019-04-06T03:00:48.880Z,10.87
2019-04-06T03:03:19.269Z,14.17
2019-04-06T03:05:49.625Z,14.77
2019-04-06T03:08:20.001Z,11.77
2019-04-06T03:10:50.385Z,11.63
2019-04-06T03:13:20.779Z,13.33
2019-04-06T03:15:51.159Z,13.57
2019-04-06T03:18:21.530Z,11.53
2019-04-06T03:20:51.918Z,13.80
2019-04-06T03:23:24.661Z,10.83
2019-04-06T03:25:54.476Z,14.20
2019-04-06T03:28:24.916Z,11.83
2019-04-06T03:30:55.561Z,13.67
2019-04-06T03:33:26.050Z,14.47
2019-04-06T03:35:56.746Z,14.10
2019-04-06T03:38:27.449Z,14.90
2019-04-06T03:40:57.768Z,12.70
2019-04-06T03:43:28.141Z,15.23
2019-04-06T03:45:58.521Z,15.67
2019-04-06T03:48:29.011Z,15.13
2019-04-06T03:50:59.377Z,14.27
2019-04-06T03:53:29.803Z,15.07
2019-04-06T03:56:00.166Z,13.80
2019-04-06T03:58:30.485Z,15.63
2019-04-06T04:01:01.174Z,16.13
2019-04-06T04:03:31.598Z,16.37
2019-04-06T04:06:02.106Z,15.70
2019-04-06T04:08:32.362Z,14.77
2019-04-06T04:11:02.768Z,14.13
2019-04-06T04:13:33.113Z,13.77
2019-04-06T04:16:03.636Z,14.23
2019-04-06T04:18:34.004Z,12.87
2019-04-06T04:21:04.468Z,14.20
2019-04-06T04:23:34.800Z,17.30
2019-04-06T04:26:05.607Z,13.43
2019-04-06T04:28:36.264Z,16.00
2019-04-06T04:31:06.660Z,15.47
2019-04-06T04:33:37.250Z,16.30
2019-04-06T04:36:07.839Z,15.17
2019-04-06T04:38:38.230Z,15.40
2019-04-06T04:41:08.783Z,16.57
2019-04-06T04:43:39.243Z,15.27
2019-04-06T04:46:09.729Z,15.20
2019-04-06T04:48:40.396Z,15.53
2019-04-06T04:51:10.739Z,17.67
2019-04-06T04:53:41.204Z,13.93
2019-04-06T04:56:11.575Z,16.23
2019-04-06T04:58:42.169Z,15.23
2019-04-06T05:01:12.720Z,15.97
2019-04-06T05:03:43.340Z,14.80
2019-04-06T05:06:13.767Z,10.97
2019-04-06T05:08:46.121Z,11.13
2019-04-06T05:11:16.844Z,13.63
2019-04-06T05:13:47.239Z,14.63
2019-04-06T05:16:17.709Z,13.17
2019-04-06T05:18:49.025Z,14.47
2019-04-06T05:21:19.518Z,13.57
2019-04-06T05:23:50.153Z,12.17
2019-04-06T05:26:20.608Z,11.73
2019-04-06T05:28:51.382Z,14.40
2019-04-06T05:31:21.715Z,15.00
2019-04-06T05:33:52.222Z,13.50
2019-04-06T05:36:22.959Z,13.17
2019-04-06T05:38:53.437Z,10.97
2019-04-06T05:41:23.742Z,14.13
2019-04-06T05:43:54.282Z,14.40
2019-04-06T05:46:25.809Z,14.90
2019-04-06T05:48:56.382Z,15.73
2019-04-06T05:51:26.931Z,14.63
2019-04-06T05:53:57.339Z,15.53
2019-04-06T05:56:27.795Z,14.63
2019-04-06T05:58:58.147Z,12.20
2019-04-06T06:01:28.675Z,13.63
2019-04-06T06:03:59.333Z,13.73
2019-04-06T06:06:29.890Z,13.97
2019-04-06T06:09:00.288Z,12.47
2019-04-06T06:11:31.010Z,14.87
2019-04-06T06:14:01.395Z,14.57
2019-04-06T06:16:31.795Z,13.87
2019-04-06T06:19:02.119Z,14.07
2019-04-06T06:21:32.533Z,13.90
2019-04-06T06:24:02.959Z,14.20
2019-04-06T06:26:33.305Z,14.80
2019-04-06T06:29:03.628Z,13.17
2019-04-06T06:31:34.035Z,15.13
2019-04-06T06:34:04.615Z,14.40
2019-04-06T06:36:35.055Z,11.27
2019-04-06T06:39:08.301Z,13.90
2019-04-06T06:41:38.740Z,15.17
2019-04-06T06:44:09.603Z,17.13
2019-04-06T06:46:40.023Z,14.53
2019-04-06T06:49:10.373Z,14.33
2019-04-06T06:51:40.723Z,15.57
2019-04-06T06:54:11.135Z,13.37
2019-04-06T06:56:41.576Z,13.93
2019-04-06T06:59:11.980Z,14.53
2019-04-06T07:01:42.373Z,13.77
2019-04-06T07:04:13.707Z,11.80
2019-04-06T07:06:44.102Z,14.17
2019-04-06T07:09:14.415Z,12.33
2019-04-06T07:11:44.827Z,12.73
2019-04-06T07:14:15.230Z,14.57
2019-04-06T07:16:45.725Z,14.57
2019-04-06T07:19:16.127Z,13.60
2019-04-06T07:21:46.471Z,13.63
2019-04-06T07:24:16.884Z,13.40
2019-04-06T07:26:47.272Z,14.23
2019-04-06T07:29:17.711Z,13.40
2019-04-06T07:31:48.167Z,13.17
2019-04-06T07:34:18.540Z,9.47
2019-04-06T07:36:49.514Z,12.03
2019-04-06T07:39:19.864Z,12.90
2019-04-06T07:41:50.705Z,13.23
2019-04-06T07:44:21.060Z,12.33
2019-04-06T07:46:51.704Z,12.00
2019-04-06T07:49:22.369Z,13.77
2019-04-06T07:51:52.771Z,11.57
2019-04-06T07:54:23.173Z,12.53
2019-04-06T07:56:53.580Z,13.07
2019-04-06T07:59:24.052Z,13.07
2019-04-06T08:01:54.499Z,11.40
2019-04-06T08:04:24.878Z,13.30
2019-04-06T08:06:55.228Z,9.53
2019-04-06T08:09:25.550Z,11.83
2019-04-06T08:11:55.940Z,13.13
2019-04-06T08:14:26.337Z,12.00
2019-04-06T08:16:56.730Z,13.63
2019-04-06T08:19:27.176Z,12.27
2019-04-06T08:21:57.567Z,13.40
2019-04-06T08:24:28.279Z,13.43
2019-04-06T08:26:59.520Z,13.80
2019-04-06T08:29:30.140Z,11.67
2019-04-06T08:32:00.508Z,13.40
2019-04-06T08:34:30.836Z,12.23
2019-04-06T08:37:01.291Z,11.70
2019-04-06T08:39:31.646Z,11.77
2019-04-06T08:42:02.170Z,8.73
2019-04-06T08:44:32.606Z,10.70
2019-04-06T08:47:03.277Z,11.55
2019-04-06T08:49:33.701Z,11.05
2019-04-06T08:52:04.325Z,9.93
2019-04-06T08:54:34.660Z,10.58
2019-04-06T08:57:05.358Z,8.30
2019-04-06T08:59:35.841Z,7.90
2019-04-06T09:02:06.409Z,9.13
2019-04-06T09:04:36.759Z,8.75
2019-04-06T09:07:07.220Z,8.70
2019-04-06T09:09:37.751Z,10.08
2019-04-06T09:12:08.090Z,8.88
2019-04-06T09:14:38.491Z,10.00
2019-04-06T09:17:08.841Z,9.15
2019-04-06T09:19:40.390Z,10.28
2019-04-06T09:22:10.820Z,8.35
2019-04-06T09:24:41.254Z,9.33
2019-04-06T09:27:11.593Z,8.03
2019-04-06T09:29:43.265Z,7.72
2019-04-06T09:32:13.700Z,8.15
2019-04-06T09:34:44.292Z,9.23
2019-04-06T09:37:14.922Z,8.70
2019-04-06T09:39:46.328Z,9.98
2019-04-06T09:42:17.031Z,11.38
2019-04-06T09:45:10.628Z,8.90
2019-04-06T09:47:50.086Z,8.40
2019-04-06T09:50:42.166Z,9.10
2019-04-06T09:53:46.808Z,7.97
2019-04-06T09:56:32.590Z,8.18
2019-04-06T09:59:20.598Z,8.53
2019-04-06T10:02:07.941Z,8.95
2019-04-06T10:05:00.296Z,8.00
2019-04-06T10:07:55.219Z,8.03
2019-04-06T10:10:44.525Z,7.55
2019-04-06T10:13:25.393Z,9.08
2019-04-06T10:16:14.992Z,8.93
2019-04-06T10:19:10.917Z,8.50
2019-04-06T10:21:58.771Z,9.13
2019-04-06T10:24:51.115Z,9.23
2019-04-06T10:27:40.376Z,8.00
2019-04-06T10:30:42.575Z,9.03
2019-04-06T10:33:34.821Z,9.05
2019-04-06T10:36:34.286Z,9.08
2019-04-06T10:39:26.830Z,9.53
2019-04-06T10:42:10.457Z,9.40
2019-04-06T10:45:14.912Z,8.08
2019-04-06T10:47:54.896Z,8.30
2019-04-06T10:50:47.099Z,9.85
2019-04-06T10:53:35.827Z,9.30
2019-04-06T10:56:28.533Z,9.63
2019-04-06T10:59:36.300Z,9.23
2019-04-06T11:02:23.823Z,8.80
2019-04-06T11:05:25.307Z,9.95
2019-04-06T11:08:23.762Z,10.10
2019-04-06T11:11:08.335Z,10.55
2019-04-06T11:13:47.613Z,9.65
2019-04-06T11:16:35.420Z,8.80
2019-04-06T11:19:36.818Z,10.08
2019-04-06T11:22:19.643Z,9.90
2019-04-06T11:25:24.018Z,9.58
2019-04-06T11:28:17.516Z,8.25
2019-04-06T11:31:13.239Z,9.50
2019-04-06T11:34:01.522Z,9.40
2019-04-06T11:36:42.242Z,10.50
2019-04-06T11:39:34.678Z,10.13
2019-04-06T11:42:23.988Z,11.08
2019-04-06T11:45:19.100Z,10.48
2019-04-06T11:48:07.185Z,9.90
2019-04-06T11:51:10.145Z,9.43
2019-04-06T11:54:08.496Z,11.00
2019-04-06T11:56:47.544Z,8.88
2019-04-06T11:59:31.567Z,9.20
2019-04-06T12:02:32.904Z,10.88
2019-04-06T12:05:21.156Z,10.08
2019-04-06T12:08:16.860Z,7.87
2019-04-06T12:11:06.342Z,8.65
2019-04-06T12:13:54.543Z,8.63
2019-04-06T12:16:33.227Z,7.85
2019-04-06T12:19:23.123Z,7.25
2019-04-06T12:22:21.581Z,8.98
2019-04-06T12:25:09.657Z,7.75
2019-04-06T12:27:59.020Z,9.13
2019-04-06T12:30:48.484Z,7.67
2019-04-06T12:33:40.953Z,8.05
2019-04-06T12:36:25.139Z,8.58
2019-04-06T12:39:14.400Z,9.25
2019-04-06T12:41:55.198Z,8.08
2019-04-06T12:44:44.581Z,9.25
2019-04-06T12:47:25.999Z,9.25
2019-04-06T12:50:24.667Z,7.55
2019-04-06T12:53:14.743Z,9.38
2019-04-06T12:55:56.567Z,8.70
2019-04-06T12:58:46.342Z,9.88
2019-04-06T13:01:30.733Z,8.35
2019-04-06T13:04:20.060Z,8.15
2019-04-06T13:07:04.023Z,9.38
2019-04-06T13:09:56.467Z,8.63
2019-04-06T13:12:45.051Z,9.00
2019-04-06T13:15:21.626Z,9.77
2019-04-06T13:18:08.463Z,9.07
2019-04-06T13:21:01.084Z,9.93
2019-04-06T13:23:53.599Z,8.10
2019-04-06T13:26:52.417Z,8.07
2019-04-06T13:29:56.770Z,8.73
2019-04-06T13:32:44.704Z,6.58
2019-04-06T13:35:34.001Z,9.37
2019-04-06T13:38:32.421Z,10.97
2019-04-06T13:41:24.635Z,8.10
2019-04-06T13:44:33.710Z,7.27
2019-04-06T13:47:14.576Z,9.23
2019-04-06T13:50:07.966Z,9.53
2019-04-06T13:52:55.917Z,9.23
2019-04-06T13:56:03.534Z,8.57
2019-04-06T13:58:51.700Z,8.67
2019-04-06T14:01:46.478Z,9.27
2019-04-06T14:04:42.063Z,8.80
2019-04-06T14:07:34.788Z,9.57
2019-04-06T14:10:31.449Z,9.47
2019-04-06T14:13:15.929Z,7.30
2019-04-06T14:15:59.129Z,9.27
2019-04-06T14:18:47.492Z,9.23
2019-04-06T14:21:37.441Z,9.07
2019-04-06T14:24:25.650Z,8.60
2019-04-06T14:27:27.436Z,9.13
2019-04-06T14:30:16.938Z,8.90
2019-04-06T14:33:05.209Z,8.27
2019-04-06T14:36:09.954Z,7.70
2019-04-06T14:38:50.143Z,10.27
2019-04-06T14:41:34.254Z,7.27
2019-04-06T14:44:29.732Z,7.83
2019-04-06T14:47:28.316Z,11.60
2019-04-06T14:50:19.130Z,9.03
2019-04-06T14:53:17.660Z,10.13
2019-04-06T14:56:07.117Z,9.50
2019-04-06T14:58:45.484Z,10.00
2019-04-06T15:01:41.514Z,10.63
2019-04-06T15:04:13.531Z,9.80
2019-04-06T15:07:13.179Z,10.17
2019-04-06T15:10:05.392Z,11.57
2019-04-06T15:12:44.641Z,10.10
2019-04-06T15:15:37.205Z,12.67
2019-04-06T15:18:20.772Z,8.10
2019-04-06T15:21:14.663Z,12.00
2019-04-06T15:24:04.209Z,10.57
2019-04-06T15:26:56.922Z,13.47
2019-04-06T15:29:40.159Z,12.17
2019-04-06T15:32:28.308Z,11.53
2019-04-06T15:35:07.363Z,12.20
2019-04-06T15:37:50.031Z,12.50
2019-04-06T15:40:48.610Z,11.70
2019-04-06T15:43:33.923Z,10.60
2019-04-06T15:46:19.363Z,11.23
2019-04-06T15:49:07.448Z,10.90
2019-04-06T15:52:11.881Z,11.13
2019-04-06T15:54:43.787Z,10.17
2019-04-06T15:57:19.239Z,9.70
2019-04-06T16:00:04.194Z,9.97
2019-04-06T16:02:48.648Z,11.27
2019-04-06T16:05:40.985Z,10.73
2019-04-06T16:08:39.647Z,12.27
2019-04-06T16:11:19.754Z,11.10
2019-04-06T16:14:12.269Z,11.47
2019-04-06T16:16:49.974Z,11.20
2019-04-06T16:19:42.675Z,9.93
2019-04-06T16:22:35.548Z,10.83
2019-04-06T16:25:27.189Z,10.37
2019-04-06T16:28:12.046Z,10.17
2019-04-06T16:31:02.192Z,11.63
2019-04-06T16:33:57.883Z,11.13
2019-04-06T16:36:45.613Z,10.07
2019-04-06T16:39:30.103Z,11.70
2019-04-06T16:42:17.665Z,10.53
2019-04-06T16:45:07.314Z,11.63
2019-04-06T16:48:00.086Z,12.07
2019-04-06T16:50:38.425Z,9.60
2019-04-06T16:53:43.762Z,11.70
2019-04-06T16:56:28.050Z,11.43
2019-04-06T16:59:26.769Z,10.70
2019-04-06T17:02:22.901Z,10.70
2019-04-06T17:05:15.687Z,11.60
2019-04-06T17:08:12.424Z,10.43
2019-04-06T17:11:06.930Z,11.27
2019-04-06T17:13:54.902Z,9.63
2019-04-06T17:16:35.331Z,10.57
2019-04-06T17:19:14.364Z,12.47
2019-04-06T17:21:51.032Z,12.00
2019-04-06T17:24:40.343Z,10.90
2019-04-06T17:27:28.939Z,9.53
2019-04-06T17:30:07.909Z,11.00
2019-04-06T17:32:57.338Z,12.13
2019-04-06T17:35:36.128Z,11.27
2019-04-06T17:38:31.981Z,10.33
2019-04-06T17:41:30.933Z,12.63
2019-04-06T17:44:19.018Z,11.27
2019-04-06T17:47:01.910Z,11.07
2019-04-06T17:49:57.442Z,13.70
2019-04-06T17:52:50.235Z,13.10
2019-04-06T17:55:38.037Z,9.50
2019-04-06T17:58:33.650Z,12.93
2019-04-06T18:01:26.480Z,12.13
2019-04-06T18:04:28.141Z,12.70
2019-04-06T18:07:16.838Z,13.60
2019-04-06T18:10:04.998Z,12.63
2019-04-06T18:12:50.922Z,13.20
2019-04-06T18:15:21.464Z,18.00
2019-04-06T18:17:51.846Z,11.67
2019-04-06T18:20:22.241Z,12.77
2019-04-06T18:22:52.652Z,12.43
2019-04-06T18:25:23.433Z,14.53
2019-04-06T18:27:55.013Z,11.87
2019-04-06T18:30:25.971Z,12.37
2019-04-06T18:33:09.413Z,12.47
2019-04-06T18:35:39.917Z,14.90
2019-04-06T18:38:30.176Z,12.77
2019-04-06T18:41:00.614Z,12.63
2019-04-06T18:43:30.940Z,13.03
2019-04-06T18:46:01.704Z,14.37
2019-04-06T18:48:32.074Z,14.30
2019-04-06T18:51:03.662Z,14.10
2019-04-06T18:53:34.325Z,15.17
2019-04-06T18:56:05.654Z,13.50
2019-04-06T18:58:36.537Z,13.77
2019-04-06T19:01:07.343Z,14.07
2019-04-06T19:03:37.836Z,14.43
2019-04-06T19:06:08.306Z,14.43
2019-04-06T19:08:39.154Z,13.13
2019-04-06T19:11:09.928Z,15.47
2019-04-06T19:13:40.708Z,12.47
2019-04-06T19:16:11.647Z,16.20
2019-04-06T19:18:41.972Z,14.10
2019-04-06T19:21:12.775Z,15.60
2019-04-06T19:23:43.505Z,14.97
2019-04-06T19:26:14.060Z,14.50
2019-04-06T19:28:44.694Z,16.97
2019-04-06T19:31:15.705Z,15.10
2019-04-06T19:33:46.531Z,14.37
2019-04-06T19:36:16.886Z,14.70
2019-04-06T19:38:47.572Z,15.87
2019-04-06T19:41:17.962Z,17.67
2019-04-06T19:43:48.303Z,15.80
2019-04-06T19:46:19.023Z,17.90
2019-04-06T19:48:49.561Z,16.67
2019-04-06T19:51:20.652Z,17.00
2019-04-06T19:53:51.231Z,18.83
2019-04-06T19:56:21.641Z,19.90
2019-04-06T19:58:52.387Z,18.60
2019-04-06T20:01:22.976Z,21.60
2019-04-06T20:03:53.359Z,21.03
2019-04-06T20:06:23.830Z,21.63
2019-04-06T20:08:55.003Z,19.57
2019-04-06T20:11:25.662Z,20.70
2019-04-06T20:13:56.219Z,22.17
2019-04-06T20:16:27.524Z,22.07
2019-04-06T20:18:57.993Z,21.43
2019-04-06T20:21:28.331Z,20.60
2019-04-06T20:23:59.211Z,20.03
2019-04-06T20:26:31.663Z,21.47
2019-04-06T20:29:02.444Z,21.10
2019-04-06T20:31:33.096Z,20.10
2019-04-06T20:34:03.481Z,21.77
2019-04-06T20:36:35.471Z,21.57
2019-04-06T20:39:08.695Z,20.63
2019-04-06T20:41:40.387Z,21.07
2019-04-06T20:44:10.837Z,20.50
2019-04-06T20:46:41.616Z,21.40
2019-04-06T20:49:12.001Z,21.17
2019-04-06T20:51:42.567Z,20.43
2019-04-06T20:54:12.988Z,21.07
2019-04-06T20:56:53.230Z,21.43
2019-04-06T20:59:16.661Z,21.50
2019-04-06T21:01:47.437Z,22.63
2019-04-06T21:04:17.898Z,21.63
2019-04-06T21:06:48.258Z,21.00
2019-04-06T21:09:19.249Z,18.80
2019-04-06T21:11:49.657Z,21.97
2019-04-06T21:14:20.508Z,21.30
2019-04-06T21:16:51.231Z,20.20
2019-04-06T21:19:21.729Z,21.90
2019-04-06T21:21:52.148Z,21.73
2019-04-06T21:24:22.529Z,22.03
2019-04-06T21:26:53.509Z,21.63
2019-04-06T21:29:24.269Z,22.03
2019-04-06T21:31:55.222Z,19.70
2019-04-06T21:34:26.070Z,19.73
2019-04-06T21:36:56.646Z,20.23
2019-04-06T21:39:27.885Z,22.07
2019-04-06T21:41:58.426Z,20.40
2019-04-06T21:44:28.704Z,21.43
2019-04-06T21:46:59.114Z,20.23
2019-04-06T21:49:29.555Z,18.33
2019-04-06T21:51:59.990Z,23.30
2019-04-06T21:54:30.782Z,21.57
2019-04-06T21:57:01.219Z,20.30
2019-04-06T21:59:31.629Z,23.07
2019-04-06T22:02:02.413Z,21.07
2019-04-06T22:04:33.736Z,21.27
2019-04-06T22:07:04.337Z,20.87
2019-04-06T22:09:34.819Z,22.27
2019-04-06T22:12:06.071Z,19.37
2019-04-06T22:14:36.660Z,22.20
2019-04-06T22:17:07.595Z,22.13
2019-04-06T22:19:38.250Z,22.13
2019-04-06T22:22:08.939Z,22.10
2019-04-06T22:24:39.504Z,22.90
2019-04-06T22:27:09.782Z,21.87
2019-04-06T22:29:41.636Z,21.93
2019-04-06T22:32:12.285Z,21.13
2019-04-06T22:34:44.272Z,21.83
2019-04-06T22:37:15.022Z,23.53
2019-04-06T22:39:45.954Z,21.53
2019-04-06T22:42:16.463Z,21.80
2019-04-06T22:44:46.897Z,23.10
2019-04-06T22:47:17.259Z,23.23
2019-04-06T22:49:48.140Z,18.67
2019-04-06T22:52:18.665Z,21.53
2019-04-06T22:54:50.298Z,22.80
2019-04-06T22:57:21.224Z,24.43
2019-04-06T22:59:51.996Z,23.97
2019-04-06T23:02:22.630Z,22.83
2019-04-06T23:05:03.884Z,24.70
2019-04-06T23:07:34.835Z,25.37
2019-04-06T23:10:06.194Z,22.67
2019-04-06T23:12:37.011Z,23.27
2019-04-06T23:15:08.296Z,24.23
2019-04-06T23:17:39.450Z,23.50
2019-04-06T23:20:10.499Z,23.20
2019-04-06T23:22:41.177Z,22.30
2019-04-06T23:25:11.803Z,24.23
2019-04-06T23:27:42.276Z,24.43
2019-04-06T23:30:13.190Z,23.37
2019-04-06T23:32:43.697Z,23.67
2019-04-06T23:35:14.078Z,22.10
2019-04-06T23:37:44.791Z,24.73
2019-04-06T23:40:15.391Z,24.00
2019-04-06T23:42:45.893Z,22.53
2019-04-06T23:45:16.386Z,23.87
2019-04-06T23:47:46.939Z,24.03
2019-04-06T23:50:17.862Z,22.57
2019-04-06T23:52:48.662Z,22.63
2019-04-06T23:55:18.992Z,24.73
2019-04-06T23:57:49.438Z,23.47
